createdAt,value
2023-02-11T00:01:32.316Z,9.15
2023-02-11T00:03:59.553Z,9.32
2023-02-11T00:06:28.103Z,9.70
2023-02-11T00:08:55.856Z,9.52
2023-02-11T00:11:25.481Z,8.15
2023-02-11T00:13:52.633Z,8.82
2023-02-11T00:16:21.257Z,9.68
2023-02-11T00:18:47.942Z,10.35
2023-02-11T00:21:17.405Z,8.38
2023-02-11T00:23:44.609Z,9.68
2023-02-11T00:26:19.139Z,9.65
2023-02-11T00:28:46.490Z,8.13
2023-02-11T00:31:14.469Z,8.63
2023-02-11T00:33:41.803Z,9.07
2023-02-11T00:36:11.645Z,10.23
2023-02-11T00:38:38.058Z,7.85
2023-02-11T00:41:04.466Z,9.85
2023-02-11T00:43:30.893Z,9.13
2023-02-11T00:45:57.291Z,9.38
2023-02-11T00:48:23.687Z,8.35
2023-02-11T00:50:50.389Z,9.48
2023-02-11T00:53:16.899Z,9.60
2023-02-11T00:55:43.339Z,9.60
2023-02-11T00:58:09.749Z,9.18
2023-02-11T01:00:36.242Z,9.02
2023-02-11T01:03:02.798Z,9.57
2023-02-11T01:05:29.791Z,9.90
2023-02-11T01:07:56.335Z,10.90
2023-02-11T01:10:22.753Z,9.32
2023-02-11T01:12:49.202Z,10.52
2023-02-11T01:15:17.719Z,6.50
2023-02-11T01:17:44.253Z,10.48
2023-02-11T01:20:24.282Z,9.38
2023-02-11T01:22:50.803Z,8.63
2023-02-11T01:25:17.447Z,8.10
2023-02-11T01:27:43.811Z,8.60
2023-02-11T01:30:13.486Z,9.55
2023-02-11T01:32:40.046Z,9.63
2023-02-11T01:35:06.995Z,10.13
2023-02-11T01:37:34.020Z,10.95
2023-02-11T01:40:02.520Z,9.13
2023-02-11T01:42:29.215Z,10.38
2023-02-11T01:44:57.610Z,9.13
2023-02-11T01:47:24.024Z,9.90
2023-02-11T01:49:59.323Z,10.13
2023-02-11T01:52:35.120Z,10.18
2023-02-11T01:55:27.370Z,10.50
2023-02-11T01:57:59.250Z,9.98
2023-02-11T02:00:29.683Z,9.02
2023-02-11T02:03:04.825Z,9.90
2023-02-11T02:05:51.429Z,10.20
2023-02-11T02:08:21.683Z,9.20
2023-02-11T02:10:53.885Z,9.45
2023-02-11T02:13:20.651Z,10.05
2023-02-11T02:15:58.948Z,8.85
2023-02-11T02:18:36.465Z,9.85
2023-02-11T02:22:15.962Z,10.43
2023-02-11T02:25:01.048Z,9.80
2023-02-11T02:27:36.185Z,9.50
2023-02-11T02:30:37.840Z,10.30
2023-02-11T02:33:26.787Z,8.77
2023-02-11T02:36:18.089Z,10.20
2023-02-11T02:39:09.087Z,9.73
2023-02-11T02:41:38.479Z,10.27
2023-02-11T02:44:05.211Z,10.88
2023-02-11T02:46:34.002Z,10.65
2023-02-11T02:49:01.163Z,11.40
2023-02-11T02:51:30.409Z,11.57
2023-02-11T02:57:04.481Z,12.40
2023-02-11T03:00:01.772Z,10.65
2023-02-11T03:02:42.260Z,10.70
2023-02-11T03:05:21.308Z,9.50
2023-02-11T03:07:50.415Z,11.68
2023-02-11T03:10:25.319Z,12.80
2023-02-11T03:12:53.826Z,11.73
2023-02-11T03:15:22.804Z,12.70
2023-02-11T03:17:53.937Z,10.23
2023-02-11T03:20:22.859Z,11.82
2023-02-11T03:22:55.670Z,11.05
2023-02-11T03:25:29.315Z,11.35
2023-02-11T03:28:27.019Z,12.15
2023-02-11T03:31:06.130Z,11.50
2023-02-11T03:33:48.346Z,11.55
2023-02-11T03:36:29.617Z,11.57
2023-02-11T03:39:00.240Z,11.48
2023-02-11T03:41:27.403Z,13.13
2023-02-11T03:43:57.001Z,12.23
2023-02-11T03:46:30.788Z,11.93
2023-02-11T03:49:03.066Z,10.88
2023-02-11T03:51:31.900Z,11.45
2023-02-11T03:54:01.846Z,10.45
2023-02-11T03:56:41.776Z,11.43
2023-02-11T03:59:08.452Z,11.27
2023-02-11T04:01:35.247Z,11.35
2023-02-11T04:04:01.699Z,12.45
2023-02-11T04:06:28.103Z,12.85
2023-02-11T04:08:54.599Z,11.20
2023-02-11T04:11:21.001Z,12.45
2023-02-11T04:13:47.607Z,10.63
2023-02-11T04:16:14.100Z,11.80
2023-02-11T04:18:40.551Z,11.95
2023-02-11T04:21:07.081Z,12.45
2023-02-11T04:23:33.552Z,10.55
2023-02-11T04:26:00.020Z,11.05
2023-02-11T04:28:29.309Z,10.30
2023-02-11T04:30:56.288Z,11.43
2023-02-11T04:33:23.173Z,11.57
2023-02-11T04:35:50.240Z,11.07
2023-02-11T04:38:16.862Z,11.07
2023-02-11T04:40:43.430Z,12.35
2023-02-11T04:43:09.816Z,10.65
2023-02-11T04:45:39.319Z,11.80
2023-02-11T04:48:05.932Z,11.23
2023-02-11T04:50:32.437Z,10.95
2023-02-11T04:52:58.903Z,11.00
2023-02-11T04:55:25.366Z,11.13
2023-02-11T04:57:52.061Z,11.82
2023-02-11T05:00:18.788Z,11.38
2023-02-11T05:02:45.188Z,11.48
2023-02-11T05:05:11.619Z,11.63
2023-02-11T05:07:38.040Z,12.02
2023-02-11T05:10:04.980Z,10.88
2023-02-11T05:12:31.420Z,11.10
2023-02-11T05:14:57.792Z,12.35
2023-02-11T05:17:24.285Z,11.35
2023-02-11T05:19:50.723Z,11.48
2023-02-11T05:22:17.164Z,10.90
2023-02-11T05:24:43.689Z,12.10
2023-02-11T05:27:10.126Z,11.75
2023-02-11T05:29:36.676Z,11.35
2023-02-11T05:32:03.195Z,11.50
2023-02-11T05:34:29.650Z,12.68
2023-02-11T05:36:56.247Z,11.02
2023-02-11T05:39:22.750Z,11.43
2023-02-11T05:41:49.211Z,12.77
2023-02-11T05:44:15.619Z,12.25
2023-02-11T05:46:42.061Z,12.80
2023-02-11T05:49:08.842Z,12.20
2023-02-11T05:51:35.313Z,11.73
2023-02-11T05:54:01.888Z,12.05
2023-02-11T05:56:28.268Z,11.80
2023-02-11T05:58:54.688Z,12.60
2023-02-11T06:01:21.146Z,12.90
2023-02-11T06:03:49.998Z,12.02
2023-02-11T06:06:16.842Z,11.80
2023-02-11T06:08:43.676Z,12.10
2023-02-11T06:11:10.061Z,12.48
2023-02-11T06:13:36.589Z,12.38
2023-02-11T06:16:03.554Z,12.15
2023-02-11T06:18:30.178Z,11.68
2023-02-11T06:20:56.667Z,11.43
2023-02-11T06:23:23.142Z,13.50
2023-02-11T06:25:50.186Z,11.30
2023-02-11T06:28:16.915Z,13.25
2023-02-11T06:30:43.515Z,13.10
2023-02-11T06:33:09.979Z,12.95
2023-02-11T06:35:38.838Z,12.77
2023-02-11T06:38:05.341Z,11.50
2023-02-11T06:40:31.762Z,13.52
2023-02-11T06:42:58.190Z,11.63
2023-02-11T06:45:24.619Z,11.52
2023-02-11T06:47:52.716Z,12.32
2023-02-11T06:50:19.360Z,13.38
2023-02-11T06:52:46.035Z,11.40
2023-02-11T06:55:12.506Z,12.70
2023-02-11T06:57:38.945Z,12.63
2023-02-11T07:00:06.051Z,11.73
2023-02-11T07:02:32.644Z,12.45
2023-02-11T07:04:59.129Z,12.82
2023-02-11T07:07:25.578Z,11.52
2023-02-11T07:09:52.077Z,11.80
2023-02-11T07:12:18.476Z,11.93
2023-02-11T07:14:44.904Z,13.05
2023-02-11T07:17:11.301Z,12.20
2023-02-11T07:19:37.706Z,12.05
2023-02-11T07:22:04.083Z,12.93
2023-02-11T07:24:30.558Z,11.35
2023-02-11T07:26:57.062Z,11.45
2023-02-11T07:29:23.615Z,12.32
2023-02-11T07:31:50.396Z,12.55
2023-02-11T07:34:16.888Z,12.25
2023-02-11T07:36:45.039Z,11.73
2023-02-11T07:39:11.475Z,11.30
2023-02-11T07:41:38.354Z,11.38
2023-02-11T07:44:05.052Z,11.55
2023-02-11T07:46:31.609Z,11.82
2023-02-11T07:48:58.157Z,11.15
2023-02-11T07:51:27.858Z,12.60
2023-02-11T07:53:55.527Z,11.02
2023-02-11T07:56:22.516Z,12.25
2023-02-11T07:58:50.060Z,11.93
2023-02-11T08:01:24.885Z,13.10
2023-02-11T08:03:52.730Z,11.32
2023-02-11T08:06:20.985Z,11.77
2023-02-11T08:08:47.986Z,11.88
2023-02-11T08:11:21.378Z,12.32
2023-02-11T08:13:48.161Z,12.55
2023-02-11T08:16:26.227Z,11.27
2023-02-11T08:18:55.415Z,11.57
2023-02-11T08:23:49.606Z,10.75
2023-02-11T08:26:22.779Z,11.07
2023-02-11T08:28:51.220Z,12.15
2023-02-11T08:31:24.140Z,12.35
2023-02-11T08:33:51.204Z,11.18
2023-02-11T08:36:26.576Z,11.95
2023-02-11T08:41:29.756Z,10.93
2023-02-11T08:43:56.211Z,12.65
2023-02-11T08:46:22.673Z,11.65
2023-02-11T08:48:49.169Z,11.10
2023-02-11T08:51:19.485Z,11.60
2023-02-11T08:53:46.900Z,12.20
2023-02-11T08:56:19.971Z,11.82
2023-02-11T08:58:47.403Z,11.82
2023-02-11T09:01:17.358Z,12.23
2023-02-11T09:03:44.541Z,12.43
2023-02-11T09:06:12.802Z,12.45
2023-02-11T09:08:46.326Z,12.20
2023-02-11T09:11:13.478Z,10.98
2023-02-11T09:13:42.480Z,12.25
2023-02-11T09:16:15.580Z,10.45
2023-02-11T09:18:42.059Z,11.77
2023-02-11T09:21:09.506Z,12.63
2023-02-11T09:23:36.355Z,12.00
2023-02-11T09:26:09.185Z,12.38
2023-02-11T09:28:36.122Z,12.02
2023-02-11T09:31:11.573Z,11.75
2023-02-11T09:33:48.513Z,12.25
2023-02-11T09:36:20.759Z,12.00
2023-02-11T09:38:48.464Z,12.25
2023-02-11T09:41:31.700Z,11.02
2023-02-11T09:44:02.877Z,11.63
2023-02-11T09:46:36.464Z,12.35
2023-02-11T09:49:04.977Z,11.77
2023-02-11T09:51:53.800Z,11.18
2023-02-11T09:54:48.135Z,11.23
2023-02-11T09:57:27.902Z,11.52
2023-02-11T09:59:57.193Z,11.95
2023-02-11T10:02:36.448Z,11.32
2023-02-11T10:05:13.292Z,12.18
2023-02-11T10:08:02.986Z,11.15
2023-02-11T10:11:31.314Z,11.05
2023-02-11T10:14:24.857Z,11.88
2023-02-11T10:17:04.438Z,11.98
2023-02-11T10:19:36.908Z,11.43
2023-02-11T10:22:15.575Z,12.25
2023-02-11T10:24:44.472Z,10.25
2023-02-11T10:27:21.809Z,12.48
2023-02-11T10:30:05.004Z,10.52
2023-02-11T10:32:39.284Z,11.85
2023-02-11T10:35:15.296Z,11.70
2023-02-11T10:37:44.476Z,10.57
2023-02-11T10:40:20.216Z,11.23
2023-02-11T10:42:55.470Z,11.07
2023-02-11T10:45:31.896Z,11.50
2023-02-11T10:48:01.928Z,11.77
2023-02-11T10:50:33.369Z,11.90
2023-02-11T10:53:13.426Z,11.35
2023-02-11T10:55:55.797Z,12.25
2023-02-11T10:58:32.372Z,11.35
2023-02-11T11:01:00.321Z,12.23
2023-02-11T11:03:33.091Z,12.32
2023-02-11T11:06:02.702Z,12.50
2023-02-11T11:08:49.495Z,11.55
2023-02-11T11:11:18.695Z,10.82
2023-02-11T11:16:27.383Z,11.05
2023-02-11T11:19:21.323Z,11.00
2023-02-11T11:21:55.653Z,11.60
2023-02-11T11:24:29.414Z,10.13
2023-02-11T11:27:00.875Z,10.35
2023-02-11T11:29:38.284Z,10.48
2023-02-11T11:32:28.959Z,11.13
2023-02-11T11:34:59.197Z,10.85
2023-02-11T11:37:31.908Z,11.05
2023-02-11T11:40:03.549Z,10.80
2023-02-11T11:42:33.390Z,11.00
2023-02-11T11:45:01.281Z,10.60
2023-02-11T11:47:51.508Z,11.95
2023-02-11T11:50:49.330Z,11.52
2023-02-11T11:53:27.800Z,11.57
2023-02-11T11:56:02.962Z,12.45
2023-02-11T11:58:31.395Z,11.60
2023-02-11T12:01:28.515Z,10.68
2023-02-11T12:04:15.938Z,12.10
2023-02-11T12:07:00.140Z,11.63
2023-02-11T12:09:48.813Z,12.63
2023-02-11T12:12:37.433Z,11.77
2023-02-11T12:15:28.539Z,12.13
2023-02-11T12:18:13.276Z,11.45
2023-02-11T12:21:18.662Z,11.55
2023-02-11T12:24:06.142Z,12.18
2023-02-11T12:26:47.747Z,11.13
2023-02-11T12:29:26.439Z,12.13
2023-02-11T12:32:05.191Z,10.80
2023-02-11T12:34:59.877Z,10.77
2023-02-11T12:37:37.136Z,11.88
2023-02-11T12:40:33.389Z,11.48
2023-02-11T12:43:16.701Z,11.82
2023-02-11T12:46:08.268Z,12.80
2023-02-11T12:49:08.337Z,11.38
2023-02-11T12:51:37.805Z,11.38
2023-02-11T12:54:06.545Z,12.20
2023-02-11T12:56:39.608Z,11.77
2023-02-11T12:59:14.357Z,11.05
2023-02-11T13:01:44.329Z,11.95
2023-02-11T13:04:26.771Z,12.85
2023-02-11T13:07:02.261Z,11.55
2023-02-11T13:10:02.639Z,11.10
2023-02-11T13:12:49.166Z,11.32
2023-02-11T13:15:16.195Z,11.55
2023-02-11T13:18:12.371Z,11.30
2023-02-11T13:20:54.179Z,10.15
2023-02-11T13:23:54.097Z,10.02
2023-02-11T13:28:57.372Z,11.20
2023-02-11T13:31:27.276Z,10.27
2023-02-11T13:33:54.028Z,12.13
2023-02-11T13:36:26.398Z,11.68
2023-02-11T13:39:02.108Z,11.00
2023-02-11T13:41:35.021Z,11.23
2023-02-11T13:44:10.480Z,11.02
2023-02-11T13:47:01.864Z,10.15
2023-02-11T13:49:40.466Z,9.48
2023-02-11T13:52:22.158Z,10.05
2023-02-11T13:54:51.662Z,11.77
2023-02-11T13:57:21.144Z,11.27
2023-02-11T13:59:50.621Z,11.73
2023-02-11T14:02:35.915Z,11.80
2023-02-11T14:05:23.913Z,10.60
2023-02-11T14:08:30.267Z,11.25
2023-02-11T14:10:59.400Z,10.25
2023-02-11T14:18:54.580Z,9.52
2023-02-11T14:21:33.680Z,9.75
2023-02-11T14:24:04.793Z,10.40
2023-02-11T14:26:45.882Z,10.85
2023-02-11T14:29:18.128Z,10.07
2023-02-11T14:31:53.962Z,10.05
2023-02-11T14:34:48.284Z,10.07
2023-02-11T14:37:50.461Z,10.50
2023-02-11T14:40:40.356Z,10.15
2023-02-11T14:43:39.145Z,9.90
2023-02-11T14:46:05.938Z,9.55
2023-02-11T14:48:36.128Z,9.88
2023-02-11T14:51:18.382Z,8.80
2023-02-11T14:53:49.576Z,9.45
2023-02-11T14:56:24.577Z,10.82
2023-02-11T14:58:51.996Z,10.75
2023-02-11T15:01:40.175Z,9.13
2023-02-11T15:04:23.911Z,8.95
2023-02-11T15:06:51.013Z,10.05
2023-02-11T15:09:32.225Z,9.25
2023-02-11T15:11:58.919Z,9.18
2023-02-11T15:14:30.277Z,8.52
2023-02-11T15:17:01.105Z,8.85
2023-02-11T15:19:41.598Z,9.23
2023-02-11T15:22:20.299Z,8.48
2023-02-11T15:24:58.421Z,8.18
2023-02-11T15:27:25.742Z,7.47
2023-02-11T15:29:52.639Z,7.07
2023-02-11T15:32:24.876Z,6.93
2023-02-11T15:34:53.817Z,7.20
2023-02-11T15:37:29.086Z,7.13
2023-02-11T15:42:47.181Z,7.25
2023-02-11T15:45:28.913Z,7.05
2023-02-11T15:48:21.336Z,6.65
2023-02-11T15:50:58.753Z,7.53
2023-02-11T15:53:43.979Z,7.43
2023-02-11T15:56:43.192Z,7.55
2023-02-11T15:59:18.204Z,7.90
2023-02-11T16:01:47.005Z,6.95
2023-02-11T16:04:22.380Z,7.47
2023-02-11T16:06:49.439Z,6.72
2023-02-11T16:09:15.810Z,7.80
2023-02-11T16:11:48.259Z,7.72
2023-02-11T16:14:39.199Z,6.97
2023-02-11T16:17:23.810Z,6.75
2023-02-11T16:19:52.725Z,6.45
2023-02-11T16:22:24.207Z,6.90
2023-02-11T16:24:53.337Z,7.45
2023-02-11T16:29:50.800Z,6.65
2023-02-11T16:32:20.451Z,7.63
2023-02-11T16:34:48.574Z,7.65
2023-02-11T16:37:15.320Z,8.13
2023-02-11T16:39:42.036Z,7.30
2023-02-11T16:42:09.765Z,7.13
2023-02-11T16:44:36.296Z,7.45
2023-02-11T16:47:04.283Z,8.55
2023-02-11T16:49:34.573Z,7.65
2023-02-11T16:52:05.434Z,7.53
2023-02-11T16:54:31.980Z,8.10
2023-02-11T16:56:58.811Z,7.60
2023-02-11T16:59:25.262Z,7.80
2023-02-11T17:01:53.614Z,9.40
2023-02-11T17:04:21.479Z,9.23
2023-02-11T17:06:50.888Z,10.02
2023-02-11T17:09:20.060Z,10.60
2023-02-11T17:11:47.114Z,10.27
2023-02-11T17:14:13.803Z,10.18
2023-02-11T17:16:40.334Z,9.45
2023-02-11T17:19:07.306Z,9.48
2023-02-11T17:21:33.734Z,9.68
2023-02-11T17:24:00.182Z,9.65
2023-02-11T17:26:26.802Z,9.10
2023-02-11T17:28:53.376Z,9.27
2023-02-11T17:31:19.978Z,9.20
2023-02-11T17:33:47.390Z,9.32
2023-02-11T17:36:13.785Z,9.13
2023-02-11T17:38:40.159Z,9.45
2023-02-11T17:41:06.712Z,8.98
2023-02-11T17:43:33.244Z,8.55
2023-02-11T17:45:59.683Z,9.10
2023-02-11T17:48:28.651Z,9.90
2023-02-11T17:50:55.127Z,10.45
2023-02-11T17:53:21.597Z,10.02
2023-02-11T17:55:48.097Z,10.15
2023-02-11T17:58:14.583Z,10.60
2023-02-11T18:00:43.485Z,10.30
2023-02-11T18:03:09.928Z,11.75
2023-02-11T18:05:37.489Z,10.40
2023-02-11T18:08:06.298Z,10.63
2023-02-11T18:10:33.521Z,10.90
2023-02-11T18:13:01.128Z,11.38
2023-02-11T18:15:28.121Z,10.50
2023-02-11T18:17:55.457Z,10.55
2023-02-11T18:20:21.901Z,10.27
2023-02-11T18:22:50.595Z,10.75
2023-02-11T18:25:18.674Z,12.98
2023-02-11T18:27:45.122Z,11.60
2023-02-11T18:30:16.255Z,10.63
2023-02-11T18:32:43.041Z,11.15
2023-02-11T18:35:16.437Z,11.05
2023-02-11T18:37:42.994Z,10.38
2023-02-11T18:40:13.710Z,11.27
2023-02-11T18:42:40.422Z,11.15
2023-02-11T18:45:12.982Z,11.43
2023-02-11T18:47:39.480Z,11.82
2023-02-11T18:50:08.026Z,12.30
2023-02-11T18:52:38.428Z,11.88
2023-02-11T18:55:08.662Z,11.27
2023-02-11T18:57:36.179Z,11.90
2023-02-11T19:00:02.725Z,11.60
2023-02-11T19:02:30.346Z,12.55
2023-02-11T19:04:56.746Z,12.05
2023-02-11T19:07:25.356Z,12.07
2023-02-11T19:09:51.751Z,12.55
2023-02-11T19:12:18.686Z,12.15
2023-02-11T19:14:45.179Z,11.52
2023-02-11T19:17:12.682Z,12.27
2023-02-11T19:19:43.564Z,12.57
2023-02-11T19:22:10.973Z,12.05
2023-02-11T19:24:37.936Z,11.73
2023-02-11T19:27:04.892Z,12.43
2023-02-11T19:29:33.359Z,12.07
2023-02-11T19:31:59.803Z,11.88
2023-02-11T19:34:26.433Z,11.63
2023-02-11T19:36:54.197Z,12.15
2023-02-11T19:39:21.035Z,12.35
2023-02-11T19:41:49.223Z,12.02
2023-02-11T19:44:16.127Z,12.18
2023-02-11T19:46:42.578Z,11.73
2023-02-11T19:49:19.833Z,11.57
2023-02-11T19:51:46.243Z,10.85
2023-02-11T19:54:15.485Z,12.18
2023-02-11T19:56:41.943Z,11.75
2023-02-11T19:59:09.043Z,12.07
2023-02-11T20:01:36.509Z,12.05
2023-02-11T20:04:03.519Z,12.35
2023-02-11T20:06:33.704Z,11.90
2023-02-11T20:09:02.710Z,12.32
2023-02-11T20:11:31.163Z,11.63
2023-02-11T20:14:01.975Z,11.63
2023-02-11T20:16:46.973Z,11.65
2023-02-11T20:19:19.668Z,11.20
2023-02-11T20:21:48.152Z,10.77
2023-02-11T20:24:19.163Z,10.90
2023-02-11T20:26:48.074Z,11.00
2023-02-11T20:29:16.296Z,11.90
2023-02-11T20:31:46.178Z,11.98
2023-02-11T20:34:12.835Z,11.40
2023-02-11T20:36:42.088Z,11.77
2023-02-11T20:39:11.336Z,10.48
2023-02-11T20:41:41.499Z,11.98
2023-02-11T20:44:10.360Z,11.45
2023-02-11T20:46:40.191Z,11.63
2023-02-11T20:49:08.506Z,12.02
2023-02-11T20:51:37.857Z,11.45
2023-02-11T20:54:06.013Z,12.10
2023-02-11T20:56:35.265Z,11.80
2023-02-11T20:59:03.744Z,12.60
2023-02-11T21:01:40.679Z,11.00
2023-02-11T21:04:11.802Z,11.48
2023-02-11T21:06:41.260Z,11.80
2023-02-11T21:09:08.926Z,12.45
2023-02-11T21:11:35.556Z,11.93
2023-02-11T21:14:02.380Z,12.65
2023-02-11T21:16:29.071Z,12.43
2023-02-11T21:18:55.563Z,11.73
2023-02-11T21:21:22.412Z,13.20
2023-02-11T21:23:48.931Z,11.90
2023-02-11T21:26:16.924Z,12.38
2023-02-11T21:28:43.886Z,12.50
2023-02-11T21:31:18.855Z,12.70
2023-02-11T21:33:45.401Z,11.52
2023-02-11T21:36:11.863Z,11.95
2023-02-11T21:38:40.996Z,11.80
2023-02-11T21:43:33.912Z,12.55
2023-02-11T21:46:00.685Z,12.93
2023-02-11T21:48:27.238Z,11.55
2023-02-11T21:50:53.794Z,12.55
2023-02-11T21:53:20.252Z,12.90
2023-02-11T21:55:46.836Z,13.63
2023-02-11T21:58:13.583Z,12.30
2023-02-11T22:00:40.071Z,11.95
2023-02-11T22:03:06.520Z,13.00
2023-02-11T22:05:32.955Z,12.52
2023-02-11T22:07:59.426Z,12.52
2023-02-11T22:10:25.869Z,11.77
2023-02-11T22:12:52.242Z,12.00
2023-02-11T22:15:18.709Z,12.68
2023-02-11T22:17:45.133Z,13.15
2023-02-11T22:20:11.844Z,12.10
2023-02-11T22:22:38.273Z,12.95
2023-02-11T22:25:04.941Z,12.60
2023-02-11T22:27:31.427Z,12.35
2023-02-11T22:29:57.811Z,13.10
2023-02-11T22:32:24.206Z,12.77
2023-02-11T22:34:53.184Z,13.15
2023-02-11T22:37:20.117Z,11.75
2023-02-11T22:39:46.558Z,11.27
2023-02-11T22:42:13.005Z,12.05
2023-02-11T22:44:42.273Z,12.05
2023-02-11T22:47:08.705Z,12.32
2023-02-11T22:49:35.622Z,12.25
2023-02-11T22:52:04.942Z,11.48
2023-02-11T22:54:31.392Z,11.68
2023-02-11T22:56:57.827Z,11.50
2023-02-11T22:59:24.274Z,11.10
2023-02-11T23:01:50.827Z,12.35
2023-02-11T23:04:19.079Z,11.30
2023-02-11T23:06:47.562Z,10.95
2023-02-11T23:09:14.004Z,10.43
2023-02-11T23:11:41.307Z,11.38
2023-02-11T23:14:08.644Z,11.05
2023-02-11T23:16:35.635Z,11.45
2023-02-11T23:19:07.972Z,10.82
2023-02-11T23:21:38.017Z,10.88
2023-02-11T23:24:11.308Z,11.57
2023-02-11T23:26:42.374Z,10.95
2023-02-11T23:29:10.054Z,10.45
2023-02-11T23:31:40.016Z,10.88
2023-02-11T23:34:08.162Z,10.65
2023-02-11T23:36:35.037Z,11.10
2023-02-11T23:39:01.453Z,10.40
2023-02-11T23:41:27.969Z,12.32
2023-02-11T23:43:57.213Z,11.45
2023-02-11T23:46:25.981Z,10.15
2023-02-11T23:48:52.977Z,10.48
2023-02-11T23:51:20.328Z,10.48
2023-02-11T23:53:50.290Z,10.30
2023-02-11T23:56:20.364Z,9.63
2023-02-11T23:58:51.646Z,10.43
